createdAt,value
2022-10-14T00:04:49.010Z,9.77
2022-10-14T00:09:50.753Z,9.63
2022-10-14T00:14:52.492Z,9.27
2022-10-14T00:19:54.228Z,9.02
2022-10-14T00:24:56.025Z,9.93
2022-10-14T00:29:57.795Z,9.20
2022-10-14T00:34:59.505Z,8.55
2022-10-14T00:40:01.236Z,7.65
2022-10-14T00:45:14.829Z,8.32
2022-10-14T00:50:17.309Z,7.75
2022-10-14T00:55:19.915Z,8.02
2022-10-14T01:00:22.434Z,8.30
2022-10-14T01:05:31.611Z,7.70
2022-10-14T01:10:50.792Z,7.88
2022-10-14T01:16:18.528Z,8.38
2022-10-14T01:21:35.544Z,7.88
2022-10-14T01:26:56.923Z,7.50
2022-10-14T01:32:06.627Z,6.80
2022-10-14T01:37:14.240Z,7.70
2022-10-14T01:42:21.752Z,8.07
2022-10-14T01:47:26.587Z,7.47
2022-10-14T01:52:33.804Z,7.45
2022-10-14T01:57:39.016Z,7.95
2022-10-14T02:02:42.242Z,7.97
2022-10-14T02:07:48.132Z,7.95
2022-10-14T02:13:20.239Z,8.02
2022-10-14T02:18:30.887Z,7.60
2022-10-14T02:28:41.390Z,8.50
2022-10-14T02:33:48.537Z,8.73
2022-10-14T02:38:52.262Z,9.13
2022-10-14T02:43:54.001Z,9.02
2022-10-14T02:48:55.735Z,8.85
2022-10-14T02:53:58.048Z,9.52
2022-10-14T02:58:59.783Z,8.82
2022-10-14T03:04:01.507Z,9.15
2022-10-14T03:09:03.279Z,8.20
2022-10-14T03:14:05.007Z,7.28
2022-10-14T03:19:06.739Z,6.85
2022-10-14T03:24:09.893Z,6.88
2022-10-14T03:29:11.608Z,6.57
2022-10-14T03:34:13.376Z,6.78
2022-10-14T03:39:15.099Z,6.82
2022-10-14T03:44:17.044Z,5.70
2022-10-14T03:49:18.835Z,5.70
2022-10-14T03:54:20.655Z,6.80
2022-10-14T03:59:22.537Z,6.03
2022-10-14T04:04:24.377Z,6.30
2022-10-14T04:09:27.591Z,5.55
2022-10-14T04:14:29.336Z,6.55
2022-10-14T04:19:31.392Z,6.38
2022-10-14T04:24:33.285Z,6.47
2022-10-14T04:29:35.143Z,6.45
2022-10-14T04:34:36.905Z,6.25
2022-10-14T04:39:38.832Z,6.50
2022-10-14T04:44:40.609Z,6.90
2022-10-14T04:49:42.372Z,7.28
2022-10-14T04:54:44.303Z,6.43
2022-10-14T04:59:46.027Z,6.97
2022-10-14T05:04:47.754Z,7.28
2022-10-14T05:09:54.208Z,7.70
2022-10-14T05:14:59.537Z,7.22
2022-10-14T05:20:01.342Z,7.25
2022-10-14T05:25:03.621Z,8.02
2022-10-14T05:30:05.798Z,7.57
2022-10-14T05:35:08.816Z,7.53
2022-10-14T05:40:11.319Z,7.32
2022-10-14T05:45:13.080Z,8.45
2022-10-14T05:50:15.215Z,8.57
2022-10-14T05:55:17.059Z,8.40
2022-10-14T06:00:24.636Z,8.70
2022-10-14T06:05:27.599Z,8.13
2022-10-14T06:10:29.457Z,8.68
2022-10-14T06:15:31.360Z,9.05
2022-10-14T06:20:33.469Z,8.98
2022-10-14T06:25:36.740Z,9.05
2022-10-14T06:30:38.459Z,8.82
2022-10-14T06:35:40.183Z,9.95
2022-10-14T06:40:42.107Z,10.32
2022-10-14T06:45:44.289Z,11.13
2022-10-14T06:50:46.117Z,10.85
2022-10-14T06:55:47.933Z,10.63
2022-10-14T07:00:50.297Z,10.00
2022-10-14T07:05:52.130Z,10.38
2022-10-14T07:10:53.868Z,10.63
2022-10-14T07:15:55.652Z,9.63
2022-10-14T07:20:57.394Z,9.65
2022-10-14T07:26:00.250Z,9.77
2022-10-14T07:31:08.042Z,10.05
2022-10-14T07:36:12.685Z,9.50
2022-10-14T07:41:18.719Z,8.90
2022-10-14T07:46:29.279Z,7.45
2022-10-14T07:51:31.801Z,8.32
2022-10-14T07:56:34.940Z,9.43
2022-10-14T08:01:37.423Z,7.80
2022-10-14T08:06:39.226Z,7.55
2022-10-14T08:11:41.198Z,7.90
2022-10-14T08:16:43.112Z,8.40
2022-10-14T08:21:45.028Z,7.03
2022-10-14T08:26:58.982Z,7.43
2022-10-14T08:32:00.678Z,6.43
2022-10-14T08:37:03.308Z,6.22
2022-10-14T08:42:30.088Z,5.72
2022-10-14T08:47:43.175Z,5.75
2022-10-14T08:53:00.468Z,5.63
2022-10-14T08:58:21.489Z,4.90
2022-10-14T09:03:27.129Z,5.70
2022-10-14T09:08:35.639Z,4.68
2022-10-14T09:13:40.774Z,5.05
2022-10-14T09:18:53.939Z,3.85
2022-10-14T09:24:20.582Z,3.78
2022-10-14T09:29:25.771Z,3.92
2022-10-14T09:34:36.682Z,3.60
2022-10-14T09:39:40.522Z,3.67
2022-10-14T09:44:43.478Z,4.15
2022-10-14T09:49:47.631Z,4.47
2022-10-14T09:54:58.774Z,3.30
2022-10-14T10:00:04.959Z,3.85
2022-10-14T10:05:29.763Z,3.60
2022-10-14T10:10:32.043Z,3.78
2022-10-14T10:15:33.747Z,3.38
2022-10-14T10:20:36.074Z,3.40
2022-10-14T10:25:37.785Z,3.63
2022-10-14T10:30:50.308Z,3.08
2022-10-14T10:35:55.163Z,3.35
2022-10-14T10:41:15.268Z,3.30
2022-10-14T10:46:38.301Z,2.85
2022-10-14T10:51:53.387Z,3.30
2022-10-14T10:56:59.210Z,2.80
2022-10-14T11:02:22.986Z,2.30
2022-10-14T11:08:10.648Z,2.65
2022-10-14T11:13:24.169Z,2.58
2022-10-14T11:18:54.233Z,2.60
2022-10-14T11:24:12.236Z,2.85
2022-10-14T11:29:26.826Z,2.42
2022-10-14T11:35:01.505Z,2.72
2022-10-14T11:40:18.206Z,2.40
2022-10-14T11:45:51.376Z,2.50
2022-10-14T11:51:11.445Z,2.05
2022-10-14T11:56:34.343Z,1.88
2022-10-14T12:01:43.036Z,1.70
2022-10-14T12:06:51.798Z,1.83
2022-10-14T12:11:59.190Z,2.33
2022-10-14T12:17:06.337Z,1.55
2022-10-14T12:22:21.445Z,1.63
2022-10-14T12:27:26.012Z,1.95
2022-10-14T12:32:30.799Z,2.10
2022-10-14T12:37:43.118Z,3.50
2022-10-14T12:42:44.860Z,3.50
2022-10-14T12:47:46.635Z,4.07
2022-10-14T12:52:57.610Z,4.63
2022-10-14T12:58:00.665Z,5.22
2022-10-14T13:03:05.182Z,4.88
2022-10-14T13:08:25.717Z,5.80
2022-10-14T13:13:42.487Z,6.20
2022-10-14T13:18:44.176Z,6.22
2022-10-14T13:23:50.033Z,6.00
2022-10-14T13:29:19.868Z,5.60
2022-10-14T13:34:32.788Z,5.90
2022-10-14T13:39:35.103Z,5.75
2022-10-14T13:44:37.125Z,6.10
2022-10-14T13:49:40.587Z,6.45
2022-10-14T13:54:42.307Z,6.07
2022-10-14T14:00:27.755Z,6.75
2022-10-14T14:05:16.134Z,5.88
2022-10-14T14:10:22.358Z,6.90
2022-10-14T14:15:29.410Z,6.60
2022-10-14T14:20:34.007Z,6.20
2022-10-14T14:25:40.489Z,6.20
2022-10-14T14:30:55.101Z,6.93
2022-10-14T14:36:00.193Z,6.20
2022-10-14T14:41:17.950Z,6.13
2022-10-14T14:46:36.859Z,5.38
2022-10-14T14:51:40.499Z,5.38
2022-10-14T14:56:57.269Z,5.40
2022-10-14T15:02:01.051Z,5.43
2022-10-14T15:07:08.029Z,5.80
2022-10-14T15:12:21.329Z,5.32
2022-10-14T15:17:34.429Z,5.15
2022-10-14T15:22:38.184Z,4.45
2022-10-14T15:27:47.467Z,5.00
2022-10-14T15:32:51.097Z,5.00
2022-10-14T15:37:54.080Z,4.65
2022-10-14T15:42:56.180Z,4.97
2022-10-14T15:48:03.001Z,4.30
2022-10-14T15:53:04.805Z,4.65
2022-10-14T15:58:06.683Z,4.35
2022-10-14T16:03:10.546Z,4.60
2022-10-14T16:08:16.616Z,4.43
2022-10-14T16:13:18.349Z,4.25
2022-10-14T16:18:21.552Z,3.85
2022-10-14T16:23:28.300Z,4.38
2022-10-14T16:28:32.760Z,3.97
2022-10-14T16:33:35.254Z,3.70
2022-10-14T16:38:37.073Z,3.65
2022-10-14T16:43:39.325Z,4.38
2022-10-14T16:48:41.076Z,3.97
2022-10-14T16:53:46.711Z,3.92
2022-10-14T16:58:48.440Z,4.43
2022-10-14T17:03:50.448Z,4.40
2022-10-14T17:08:52.455Z,4.95
2022-10-14T17:13:55.676Z,4.85
2022-10-14T17:18:58.887Z,5.28
2022-10-14T17:24:01.955Z,5.10
2022-10-14T17:29:03.862Z,4.80
2022-10-14T17:34:05.884Z,5.20
2022-10-14T17:39:16.311Z,5.15
2022-10-14T17:44:23.467Z,5.63
2022-10-14T17:49:25.209Z,5.03
2022-10-14T17:54:26.948Z,6.47
2022-10-14T17:59:28.745Z,5.53
2022-10-14T18:04:32.780Z,5.50
2022-10-14T18:09:35.198Z,4.75
2022-10-14T18:14:37.851Z,5.57
2022-10-14T18:19:46.140Z,6.18
2022-10-14T18:24:51.457Z,6.25
2022-10-14T18:29:53.423Z,5.60
2022-10-14T18:34:55.234Z,6.15
2022-10-14T18:39:57.015Z,5.45
2022-10-14T18:44:59.167Z,6.63
2022-10-14T18:50:00.851Z,7.95
2022-10-14T18:55:02.620Z,7.00
2022-10-14T19:00:08.352Z,6.90
2022-10-14T19:05:12.378Z,5.97
2022-10-14T19:10:14.201Z,7.35
2022-10-14T19:15:16.261Z,6.90
2022-10-14T19:20:17.968Z,6.43
2022-10-14T19:25:20.608Z,8.90
2022-10-14T19:30:22.399Z,9.10
2022-10-14T19:35:24.137Z,9.07
2022-10-14T19:40:25.894Z,10.30
2022-10-14T19:45:27.658Z,9.60
2022-10-14T19:50:29.719Z,10.35
2022-10-14T19:55:32.226Z,9.25
2022-10-14T20:00:35.427Z,6.90
2022-10-14T20:05:37.185Z,6.47
2022-10-14T20:10:38.969Z,5.43
2022-10-14T20:15:40.875Z,6.55
2022-10-14T20:20:42.616Z,6.20
2022-10-14T20:25:44.792Z,5.63
2022-10-14T20:30:48.838Z,5.80
2022-10-14T20:36:03.336Z,6.18
2022-10-14T20:41:13.449Z,5.85
2022-10-14T20:46:15.532Z,5.78
2022-10-14T20:51:18.070Z,5.68
2022-10-14T20:56:19.890Z,6.35
2022-10-14T21:01:22.427Z,6.07
2022-10-14T21:06:24.547Z,5.72
2022-10-14T21:11:28.116Z,6.25
2022-10-14T21:16:35.275Z,7.57
2022-10-14T21:21:39.807Z,7.88
2022-10-14T21:26:41.709Z,6.97
2022-10-14T21:31:43.712Z,7.22
2022-10-14T21:36:45.481Z,7.45
2022-10-14T21:41:47.263Z,8.30
2022-10-14T21:46:49.404Z,7.38
2022-10-14T21:51:51.545Z,6.47
2022-10-14T21:56:53.300Z,5.43
2022-10-14T22:01:58.812Z,5.20
2022-10-14T22:07:00.726Z,5.38
2022-10-14T22:12:02.615Z,4.60
2022-10-14T22:17:04.313Z,4.82
2022-10-14T22:22:06.034Z,4.90
2022-10-14T22:27:07.772Z,4.32
2022-10-14T22:32:09.471Z,4.70
2022-10-14T22:37:11.173Z,4.95
2022-10-14T22:42:12.995Z,5.07
2022-10-14T22:47:14.738Z,5.60
2022-10-14T22:52:16.516Z,5.93
2022-10-14T22:57:18.372Z,6.20
2022-10-14T23:02:20.393Z,7.22
2022-10-14T23:07:22.301Z,7.53
2022-10-14T23:12:24.459Z,7.32
2022-10-14T23:17:26.540Z,8.00
2022-10-14T23:22:28.276Z,8.98
2022-10-14T23:27:32.821Z,10.27
2022-10-14T23:32:37.810Z,10.23
2022-10-14T23:37:39.577Z,11.57
2022-10-14T23:42:41.722Z,12.13
2022-10-14T23:47:43.585Z,10.90
2022-10-14T23:52:45.997Z,11.50
2022-10-14T23:57:47.735Z,12.05
